Terminal Aerodrome Forecast
Issued by NWS Grand Forks, ND

Current Version | Previous Version | Text Only | Print | Product List | Glossary On
Versions: 1 2 3 4 5 6 7 8 9 10 11 12 13 14
000
FTUS43 KFGF 031720
TAFFAR
TAF
KFAR 031720Z 0318/0418 VRB05KT 1SM FU SCT250
      TEMPO 0318/0321 2SM FU
     FM040700 16007KT 4SM FU BKN250=

USA.gov is the U.S. government's official web portal to all federal, state and local government web resources and services.